sensor_id;sensor_type;location;lat;lon;timestamp;P1;durP1;ratioP1;P2;durP2;ratioP2
64498;SDS011;51087;55.718;21.122;2023-05-27T00:02:05;3.50;;;1.10;;
64498;SDS011;51087;55.718;21.122;2023-05-27T00:04:31;5.88;;;0.93;;
64498;SDS011;51087;55.718;21.122;2023-05-27T00:06:56;2.53;;;1.00;;
64498;SDS011;51087;55.718;21.122;2023-05-27T00:09:21;4.72;;;0.90;;
64498;SDS011;51087;55.718;21.122;2023-05-27T00:11:47;2.20;;;0.80;;
64498;SDS011;51087;55.718;21.122;2023-05-27T00:14:12;2.58;;;0.98;;
64498;SDS011;51087;55.718;21.122;2023-05-27T00:16:37;3.38;;;0.93;;
64498;SDS011;51087;55.718;21.122;2023-05-27T00:19:03;1.65;;;0.95;;
64498;SDS011;51087;55.718;21.122;2023-05-27T00:21:28;5.40;;;0.80;;
64498;SDS011;51087;55.718;21.122;2023-05-27T00:23:54;1.65;;;0.70;;
64498;SDS011;51087;55.718;21.122;2023-05-27T00:26:22;3.65;;;1.00;;
64498;SDS011;51087;55.718;21.122;2023-05-27T00:28:48;4.15;;;1.20;;
64498;SDS011;51087;55.718;21.122;2023-05-27T00:31:14;3.60;;;0.90;;
64498;SDS011;51087;55.718;21.122;2023-05-27T00:33:40;4.57;;;1.00;;
64498;SDS011;51087;55.718;21.122;2023-05-27T00:36:05;2.13;;;1.10;;
64498;SDS011;51087;55.718;21.122;2023-05-27T00:38:31;3.90;;;0.95;;
64498;SDS011;51087;55.718;21.122;2023-05-27T00:40:56;1.75;;;0.90;;
64498;SDS011;51087;55.718;21.122;2023-05-27T00:43:26;3.70;;;0.90;;
64498;SDS011;51087;55.718;21.122;2023-05-27T00:45:51;2.30;;;0.90;;
64498;SDS011;51087;55.718;21.122;2023-05-27T00:48:17;2.45;;;0.80;;
64498;SDS011;51087;55.718;21.122;2023-05-27T00:50:42;2.47;;;0.90;;
64498;SDS011;51087;55.718;21.122;2023-05-27T00:53:08;1.92;;;0.70;;
64498;SDS011;51087;55.718;21.122;2023-05-27T00:55:33;1.60;;;0.90;;
64498;SDS011;51087;55.718;21.122;2023-05-27T00:57:59;4.95;;;1.00;;
64498;SDS011;51087;55.718;21.122;2023-05-27T01:00:24;4.00;;;1.15;;
64498;SDS011;51087;55.718;21.122;2023-05-27T01:02:50;3.15;;;1.00;;
64498;SDS011;51087;55.718;21.122;2023-05-27T01:05:16;2.30;;;1.00;;
64498;SDS011;51087;55.718;21.122;2023-05-27T01:10:36;2.22;;;0.98;;
64498;SDS011;51087;55.718;21.122;2023-05-27T01:15:57;1.23;;;0.82;;
64498;SDS011;51087;55.718;21.122;2023-05-27T01:18:25;2.83;;;1.10;;
64498;SDS011;51087;55.718;21.122;2023-05-27T01:20:55;3.95;;;0.80;;
64498;SDS011;51087;55.718;21.122;2023-05-27T01:23:27;1.63;;;0.90;;
64498;SDS011;51087;55.718;21.122;2023-05-27T01:25:53;5.78;;;0.98;;
64498;SDS011;51087;55.718;21.122;2023-05-27T01:28:19;3.17;;;1.02;;
64498;SDS011;51087;55.718;21.122;2023-05-27T01:30:45;4.63;;;1.20;;
64498;SDS011;51087;55.718;21.122;2023-05-27T01:33:16;5.93;;;1.35;;
64498;SDS011;51087;55.718;21.122;2023-05-27T01:38:16;3.22;;;0.98;;
64498;SDS011;51087;55.718;21.122;2023-05-27T01:40:44;4.20;;;1.00;;
64498;SDS011;51087;55.718;21.122;2023-05-27T01:43:12;5.00;;;0.93;;
64498;SDS011;51087;55.718;21.122;2023-05-27T01:45:40;4.82;;;1.00;;
64498;SDS011;51087;55.718;21.122;2023-05-27T01:48:06;4.38;;;1.10;;
64498;SDS011;51087;55.718;21.122;2023-05-27T01:50:31;4.82;;;1.27;;
64498;SDS011;51087;55.718;21.122;2023-05-27T01:52:58;3.85;;;1.63;;
64498;SDS011;51087;55.718;21.122;2023-05-27T01:55:24;5.95;;;1.35;;
64498;SDS011;51087;55.718;21.122;2023-05-27T01:57:49;6.43;;;1.35;;
64498;SDS011;51087;55.718;21.122;2023-05-27T02:00:15;1.95;;;1.10;;
64498;SDS011;51087;55.718;21.122;2023-05-27T02:02:41;3.03;;;1.40;;
64498;SDS011;51087;55.718;21.122;2023-05-27T02:05:07;4.32;;;1.20;;
64498;SDS011;51087;55.718;21.122;2023-05-27T02:07:32;1.67;;;1.00;;
64498;SDS011;51087;55.718;21.122;2023-05-27T02:09:58;3.25;;;1.15;;
64498;SDS011;51087;55.718;21.122;2023-05-27T02:12:23;2.95;;;1.10;;
64498;SDS011;51087;55.718;21.122;2023-05-27T02:14:49;1.80;;;1.00;;
64498;SDS011;51087;55.718;21.122;2023-05-27T02:17:16;7.90;;;1.17;;
64498;SDS011;51087;55.718;21.122;2023-05-27T02:19:42;5.95;;;1.20;;
64498;SDS011;51087;55.718;21.122;2023-05-27T02:22:07;5.80;;;1.38;;
64498;SDS011;51087;55.718;21.122;2023-05-27T02:24:34;6.72;;;1.45;;
64498;SDS011;51087;55.718;21.122;2023-05-27T02:26:59;6.35;;;1.77;;
64498;SDS011;51087;55.718;21.122;2023-05-27T02:29:26;3.28;;;1.20;;
64498;SDS011;51087;55.718;21.122;2023-05-27T02:31:51;3.88;;;1.20;;
64498;SDS011;51087;55.718;21.122;2023-05-27T02:34:17;5.07;;;1.20;;
64498;SDS011;51087;55.718;21.122;2023-05-27T02:36:42;4.05;;;1.08;;
64498;SDS011;51087;55.718;21.122;2023-05-27T02:39:08;8.43;;;1.00;;
64498;SDS011;51087;55.718;21.122;2023-05-27T02:41:34;4.68;;;1.13;;
64498;SDS011;51087;55.718;21.122;2023-05-27T02:43:59;3.95;;;1.17;;
64498;SDS011;51087;55.718;21.122;2023-05-27T02:46:24;2.28;;;1.05;;
64498;SDS011;51087;55.718;21.122;2023-05-27T02:48:50;4.95;;;0.90;;
64498;SDS011;51087;55.718;21.122;2023-05-27T02:51:15;4.13;;;1.27;;
64498;SDS011;51087;55.718;21.122;2023-05-27T02:53:40;2.47;;;1.00;;
64498;SDS011;51087;55.718;21.122;2023-05-27T02:56:06;5.20;;;1.17;;
64498;SDS011;51087;55.718;21.122;2023-05-27T02:58:31;4.38;;;1.25;;
64498;SDS011;51087;55.718;21.122;2023-05-27T03:00:57;3.38;;;1.38;;
64498;SDS011;51087;55.718;21.122;2023-05-27T03:03:22;3.83;;;1.13;;
64498;SDS011;51087;55.718;21.122;2023-05-27T03:05:48;5.25;;;1.00;;
64498;SDS011;51087;55.718;21.122;2023-05-27T03:08:14;6.68;;;1.20;;
64498;SDS011;51087;55.718;21.122;2023-05-27T03:10:40;3.15;;;0.98;;
64498;SDS011;51087;55.718;21.122;2023-05-27T03:13:05;4.63;;;1.45;;
64498;SDS011;51087;55.718;21.122;2023-05-27T03:15:31;3.65;;;0.90;;
64498;SDS011;51087;55.718;21.122;2023-05-27T03:17:57;3.35;;;1.20;;
64498;SDS011;51087;55.718;21.122;2023-05-27T03:20:22;4.90;;;0.98;;
64498;SDS011;51087;55.718;21.122;2023-05-27T03:22:48;4.28;;;1.13;;
64498;SDS011;51087;55.718;21.122;2023-05-27T03:25:14;4.55;;;1.17;;
64498;SDS011;51087;55.718;21.122;2023-05-27T03:27:40;3.88;;;1.25;;
64498;SDS011;51087;55.718;21.122;2023-05-27T03:30:07;4.30;;;1.20;;
64498;SDS011;51087;55.718;21.122;2023-05-27T03:32:33;3.33;;;1.38;;
64498;SDS011;51087;55.718;21.122;2023-05-27T03:34:59;5.03;;;1.52;;
64498;SDS011;51087;55.718;21.122;2023-05-27T03:37:25;3.75;;;1.60;;
64498;SDS011;51087;55.718;21.122;2023-05-27T03:39:50;4.20;;;1.20;;
64498;SDS011;51087;55.718;21.122;2023-05-27T03:42:15;11.27;;;1.52;;
64498;SDS011;51087;55.718;21.122;2023-05-27T03:44:41;5.68;;;1.40;;
64498;SDS011;51087;55.718;21.122;2023-05-27T03:47:06;3.38;;;1.20;;
64498;SDS011;51087;55.718;21.122;2023-05-27T03:49:32;4.57;;;1.48;;
64498;SDS011;51087;55.718;21.122;2023-05-27T03:51:57;4.65;;;1.20;;
64498;SDS011;51087;55.718;21.122;2023-05-27T03:54:23;4.78;;;1.10;;
64498;SDS011;51087;55.718;21.122;2023-05-27T03:56:48;2.28;;;1.08;;
64498;SDS011;51087;55.718;21.122;2023-05-27T03:59:14;4.45;;;1.40;;
64498;SDS011;51087;55.718;21.122;2023-05-27T04:01:39;4.38;;;1.42;;
64498;SDS011;51087;55.718;21.122;2023-05-27T04:04:06;5.35;;;2.25;;
64498;SDS011;51087;55.718;21.122;2023-05-27T04:06:31;3.10;;;1.15;;
64498;SDS011;51087;55.718;21.122;2023-05-27T04:08:58;4.32;;;1.25;;
64498;SDS011;51087;55.718;21.122;2023-05-27T04:11:26;3.85;;;0.93;;
64498;SDS011;51087;55.718;21.122;2023-05-27T04:13:52;3.72;;;1.10;;
64498;SDS011;51087;55.718;21.122;2023-05-27T04:16:17;2.72;;;1.20;;
64498;SDS011;51087;55.718;21.122;2023-05-27T04:18:43;5.30;;;1.35;;
64498;SDS011;51087;55.718;21.122;2023-05-27T04:21:13;3.97;;;1.30;;
64498;SDS011;51087;55.718;21.122;2023-05-27T04:23:45;5.32;;;1.67;;
64498;SDS011;51087;55.718;21.122;2023-05-27T04:26:10;3.78;;;1.25;;
64498;SDS011;51087;55.718;21.122;2023-05-27T04:28:37;4.55;;;1.45;;
64498;SDS011;51087;55.718;21.122;2023-05-27T04:31:04;2.92;;;1.08;;
64498;SDS011;51087;55.718;21.122;2023-05-27T04:33:29;4.57;;;1.25;;
64498;SDS011;51087;55.718;21.122;2023-05-27T04:35:55;3.47;;;1.10;;
64498;SDS011;51087;55.718;21.122;2023-05-27T04:38:21;3.95;;;1.08;;
64498;SDS011;51087;55.718;21.122;2023-05-27T04:40:47;9.00;;;1.20;;
64498;SDS011;51087;55.718;21.122;2023-05-27T04:43:18;8.18;;;1.23;;
64498;SDS011;51087;55.718;21.122;2023-05-27T04:45:47;3.17;;;1.17;;
64498;SDS011;51087;55.718;21.122;2023-05-27T04:48:13;2.80;;;0.98;;
64498;SDS011;51087;55.718;21.122;2023-05-27T04:50:39;2.95;;;1.10;;
64498;SDS011;51087;55.718;21.122;2023-05-27T04:53:06;7.72;;;1.30;;
64498;SDS011;51087;55.718;21.122;2023-05-27T04:55:32;2.58;;;1.23;;
64498;SDS011;51087;55.718;21.122;2023-05-27T04:57:58;3.08;;;0.90;;
64498;SDS011;51087;55.718;21.122;2023-05-27T05:00:23;4.00;;;0.90;;
64498;SDS011;51087;55.718;21.122;2023-05-27T05:03:03;4.97;;;1.08;;
64498;SDS011;51087;55.718;21.122;2023-05-27T05:05:28;5.22;;;1.10;;
64498;SDS011;51087;55.718;21.122;2023-05-27T05:07:54;3.08;;;1.02;;
64498;SDS011;51087;55.718;21.122;2023-05-27T05:10:19;2.92;;;1.00;;
64498;SDS011;51087;55.718;21.122;2023-05-27T05:12:45;3.60;;;0.90;;
64498;SDS011;51087;55.718;21.122;2023-05-27T05:15:11;3.42;;;1.00;;
64498;SDS011;51087;55.718;21.122;2023-05-27T05:17:37;0.98;;;0.68;;
64498;SDS011;51087;55.718;21.122;2023-05-27T05:20:02;3.70;;;1.13;;
64498;SDS011;51087;55.718;21.122;2023-05-27T05:22:28;1.02;;;0.70;;
64498;SDS011;51087;55.718;21.122;2023-05-27T05:24:55;1.63;;;0.93;;
64498;SDS011;51087;55.718;21.122;2023-05-27T05:27:20;3.67;;;0.80;;
64498;SDS011;51087;55.718;21.122;2023-05-27T05:29:46;0.90;;;0.60;;
64498;SDS011;51087;55.718;21.122;2023-05-27T05:32:11;5.03;;;0.80;;
64498;SDS011;51087;55.718;21.122;2023-05-27T05:34:38;2.90;;;1.08;;
64498;SDS011;51087;55.718;21.122;2023-05-27T05:37:04;2.72;;;0.70;;
64498;SDS011;51087;55.718;21.122;2023-05-27T05:39:29;2.13;;;0.90;;
64498;SDS011;51087;55.718;21.122;2023-05-27T05:41:55;1.35;;;0.88;;
64498;SDS011;51087;55.718;21.122;2023-05-27T05:44:22;2.97;;;0.90;;
64498;SDS011;51087;55.718;21.122;2023-05-27T05:46:48;2.70;;;0.80;;
64498;SDS011;51087;55.718;21.122;2023-05-27T05:49:15;1.45;;;0.73;;
64498;SDS011;51087;55.718;21.122;2023-05-27T05:51:41;2.80;;;0.90;;
64498;SDS011;51087;55.718;21.122;2023-05-27T05:54:06;3.72;;;0.60;;
64498;SDS011;51087;55.718;21.122;2023-05-27T05:56:32;1.77;;;0.60;;
64498;SDS011;51087;55.718;21.122;2023-05-27T05:58:58;2.22;;;0.93;;
64498;SDS011;51087;55.718;21.122;2023-05-27T06:01:24;1.85;;;0.70;;
64498;SDS011;51087;55.718;21.122;2023-05-27T06:03:51;1.92;;;0.70;;
64498;SDS011;51087;55.718;21.122;2023-05-27T06:06:17;4.15;;;0.95;;
64498;SDS011;51087;55.718;21.122;2023-05-27T06:08:43;1.75;;;0.60;;
64498;SDS011;51087;55.718;21.122;2023-05-27T06:11:08;2.60;;;0.70;;
64498;SDS011;51087;55.718;21.122;2023-05-27T06:13:34;2.97;;;0.90;;
64498;SDS011;51087;55.718;21.122;2023-05-27T06:15:59;1.73;;;0.60;;
64498;SDS011;51087;55.718;21.122;2023-05-27T06:18:24;2.58;;;0.57;;
64498;SDS011;51087;55.718;21.122;2023-05-27T06:20:50;1.20;;;0.60;;
64498;SDS011;51087;55.718;21.122;2023-05-27T06:23:15;1.92;;;0.77;;
64498;SDS011;51087;55.718;21.122;2023-05-27T06:25:41;1.67;;;0.55;;
64498;SDS011;51087;55.718;21.122;2023-05-27T06:28:06;3.63;;;0.85;;
64498;SDS011;51087;55.718;21.122;2023-05-27T06:30:32;6.43;;;0.80;;
64498;SDS011;51087;55.718;21.122;2023-05-27T06:32:58;3.25;;;0.82;;
64498;SDS011;51087;55.718;21.122;2023-05-27T06:35:23;2.75;;;0.98;;
64498;SDS011;51087;55.718;21.122;2023-05-27T06:37:49;1.27;;;0.73;;
64498;SDS011;51087;55.718;21.122;2023-05-27T06:40:14;1.95;;;0.80;;
64498;SDS011;51087;55.718;21.122;2023-05-27T06:42:40;1.67;;;0.60;;
64498;SDS011;51087;55.718;21.122;2023-05-27T06:45:05;2.22;;;0.80;;
64498;SDS011;51087;55.718;21.122;2023-05-27T06:47:31;1.02;;;0.57;;
64498;SDS011;51087;55.718;21.122;2023-05-27T06:49:57;0.45;;;0.43;;
64498;SDS011;51087;55.718;21.122;2023-05-27T06:52:24;2.60;;;0.70;;
64498;SDS011;51087;55.718;21.122;2023-05-27T06:54:49;1.52;;;0.60;;
64498;SDS011;51087;55.718;21.122;2023-05-27T06:57:15;1.73;;;0.40;;
64498;SDS011;51087;55.718;21.122;2023-05-27T06:59:40;4.00;;;0.50;;
64498;SDS011;51087;55.718;21.122;2023-05-27T07:02:07;1.67;;;0.70;;
64498;SDS011;51087;55.718;21.122;2023-05-27T07:04:33;3.00;;;0.70;;
64498;SDS011;51087;55.718;21.122;2023-05-27T07:06:58;1.15;;;0.50;;
64498;SDS011;51087;55.718;21.122;2023-05-27T07:09:24;1.75;;;0.85;;
64498;SDS011;51087;55.718;21.122;2023-05-27T07:11:49;1.52;;;0.70;;
64498;SDS011;51087;55.718;21.122;2023-05-27T07:14:15;1.17;;;0.50;;
64498;SDS011;51087;55.718;21.122;2023-05-27T07:16:40;3.28;;;0.60;;
64498;SDS011;51087;55.718;21.122;2023-05-27T07:19:06;2.80;;;0.70;;
64498;SDS011;51087;55.718;21.122;2023-05-27T07:21:32;0.93;;;0.57;;
64498;SDS011;51087;55.718;21.122;2023-05-27T07:23:57;2.28;;;0.43;;
64498;SDS011;51087;55.718;21.122;2023-05-27T07:26:27;1.10;;;0.47;;
64498;SDS011;51087;55.718;21.122;2023-05-27T07:28:53;0.80;;;0.50;;
64498;SDS011;51087;55.718;21.122;2023-05-27T07:31:18;2.92;;;0.70;;
64498;SDS011;51087;55.718;21.122;2023-05-27T07:33:44;3.58;;;0.60;;
64498;SDS011;51087;55.718;21.122;2023-05-27T07:36:09;3.83;;;0.50;;
64498;SDS011;51087;55.718;21.122;2023-05-27T07:38:35;4.78;;;0.85;;
64498;SDS011;51087;55.718;21.122;2023-05-27T07:41:01;12.18;;;0.60;;
64498;SDS011;51087;55.718;21.122;2023-05-27T07:43:26;2.70;;;0.50;;
64498;SDS011;51087;55.718;21.122;2023-05-27T07:45:52;5.38;;;0.75;;
64498;SDS011;51087;55.718;21.122;2023-05-27T07:48:17;1.95;;;0.70;;
64498;SDS011;51087;55.718;21.122;2023-05-27T07:50:43;3.33;;;0.50;;
64498;SDS011;51087;55.718;21.122;2023-05-27T07:53:08;0.20;;;0.20;;
64498;SDS011;51087;55.718;21.122;2023-05-27T07:55:33;2.35;;;0.60;;
64498;SDS011;51087;55.718;21.122;2023-05-27T07:57:59;0.75;;;0.43;;
64498;SDS011;51087;55.718;21.122;2023-05-27T08:00:26;1.38;;;0.40;;
64498;SDS011;51087;55.718;21.122;2023-05-27T08:02:51;1.65;;;0.80;;
64498;SDS011;51087;55.718;21.122;2023-05-27T08:05:17;2.17;;;0.38;;
64498;SDS011;51087;55.718;21.122;2023-05-27T08:07:42;3.85;;;0.80;;
64498;SDS011;51087;55.718;21.122;2023-05-27T08:10:09;1.27;;;0.77;;
64498;SDS011;51087;55.718;21.122;2023-05-27T08:12:34;0.70;;;0.50;;
64498;SDS011;51087;55.718;21.122;2023-05-27T08:15:00;5.20;;;0.70;;
64498;SDS011;51087;55.718;21.122;2023-05-27T08:17:25;4.13;;;0.70;;
64498;SDS011;51087;55.718;21.122;2023-05-27T08:19:50;1.63;;;0.68;;
64498;SDS011;51087;55.718;21.122;2023-05-27T08:22:16;1.48;;;0.60;;
64498;SDS011;51087;55.718;21.122;2023-05-27T08:24:41;4.68;;;0.60;;
64498;SDS011;51087;55.718;21.122;2023-05-27T08:27:13;2.40;;;1.00;;
64498;SDS011;51087;55.718;21.122;2023-05-27T08:29:40;0.95;;;0.57;;
64498;SDS011;51087;55.718;21.122;2023-05-27T08:32:05;0.47;;;0.47;;
64498;SDS011;51087;55.718;21.122;2023-05-27T08:34:31;6.43;;;0.80;;
64498;SDS011;51087;55.718;21.122;2023-05-27T08:36:56;4.03;;;0.70;;
64498;SDS011;51087;55.718;21.122;2023-05-27T08:39:22;1.63;;;0.73;;
64498;SDS011;51087;55.718;21.122;2023-05-27T08:41:47;3.53;;;0.75;;
64498;SDS011;51087;55.718;21.122;2023-05-27T08:44:13;4.28;;;0.80;;
64498;SDS011;51087;55.718;21.122;2023-05-27T08:46:39;5.10;;;0.82;;
64498;SDS011;51087;55.718;21.122;2023-05-27T08:49:05;1.13;;;0.55;;
64498;SDS011;51087;55.718;21.122;2023-05-27T08:51:31;2.55;;;0.68;;
64498;SDS011;51087;55.718;21.122;2023-05-27T08:53:57;8.27;;;0.73;;
64498;SDS011;51087;55.718;21.122;2023-05-27T08:56:24;3.80;;;1.50;;
64498;SDS011;51087;55.718;21.122;2023-05-27T08:58:53;5.68;;;1.00;;
64498;SDS011;51087;55.718;21.122;2023-05-27T09:01:21;5.03;;;0.80;;
64498;SDS011;51087;55.718;21.122;2023-05-27T09:03:47;4.45;;;0.80;;
64498;SDS011;51087;55.718;21.122;2023-05-27T09:06:13;1.20;;;0.63;;
64498;SDS011;51087;55.718;21.122;2023-05-27T09:08:39;3.97;;;0.90;;
64498;SDS011;51087;55.718;21.122;2023-05-27T09:11:04;1.00;;;0.70;;
64498;SDS011;51087;55.718;21.122;2023-05-27T09:13:33;3.75;;;0.90;;
64498;SDS011;51087;55.718;21.122;2023-05-27T09:16:04;1.45;;;0.75;;
64498;SDS011;51087;55.718;21.122;2023-05-27T09:18:32;3.60;;;0.75;;
64498;SDS011;51087;55.718;21.122;2023-05-27T09:21:00;0.88;;;0.52;;
64498;SDS011;51087;55.718;21.122;2023-05-27T09:23:25;2.10;;;0.93;;
64498;SDS011;51087;55.718;21.122;2023-05-27T09:25:52;1.58;;;0.60;;
64498;SDS011;51087;55.718;21.122;2023-05-27T09:30:59;0.95;;;0.65;;
64498;SDS011;51087;55.718;21.122;2023-05-27T09:33:26;2.60;;;0.70;;
64498;SDS011;51087;55.718;21.122;2023-05-27T09:35:52;1.83;;;0.60;;
64498;SDS011;51087;55.718;21.122;2023-05-27T09:38:17;4.97;;;0.80;;
64498;SDS011;51087;55.718;21.122;2023-05-27T09:40:43;10.65;;;1.00;;
64498;SDS011;51087;55.718;21.122;2023-05-27T09:43:12;6.40;;;1.13;;
64498;SDS011;51087;55.718;21.122;2023-05-27T09:45:38;10.13;;;1.27;;
64498;SDS011;51087;55.718;21.122;2023-05-27T09:48:05;2.13;;;0.70;;
64498;SDS011;51087;55.718;21.122;2023-05-27T09:50:33;1.70;;;0.75;;
64498;SDS011;51087;55.718;21.122;2023-05-27T09:52:59;2.30;;;1.25;;
64498;SDS011;51087;55.718;21.122;2023-05-27T09:55:26;1.42;;;0.80;;
64498;SDS011;51087;55.718;21.122;2023-05-27T09:57:54;2.90;;;1.00;;
64498;SDS011;51087;55.718;21.122;2023-05-27T10:00:20;3.65;;;0.73;;
64498;SDS011;51087;55.718;21.122;2023-05-27T10:02:46;1.30;;;0.70;;
64498;SDS011;51087;55.718;21.122;2023-05-27T10:05:14;5.45;;;0.93;;
64498;SDS011;51087;55.718;21.122;2023-05-27T10:07:41;1.35;;;0.70;;
64498;SDS011;51087;55.718;21.122;2023-05-27T10:10:08;1.20;;;0.68;;
64498;SDS011;51087;55.718;21.122;2023-05-27T10:12:36;3.65;;;0.70;;
64498;SDS011;51087;55.718;21.122;2023-05-27T10:15:03;3.17;;;0.90;;
64498;SDS011;51087;55.718;21.122;2023-05-27T10:17:39;1.55;;;0.77;;
64498;SDS011;51087;55.718;21.122;2023-05-27T10:20:32;3.45;;;0.75;;
64498;SDS011;51087;55.718;21.122;2023-05-27T10:25:46;0.90;;;0.47;;
64498;SDS011;51087;55.718;21.122;2023-05-27T10:28:46;1.35;;;0.70;;
64498;SDS011;51087;55.718;21.122;2023-05-27T10:31:14;1.27;;;0.80;;
64498;SDS011;51087;55.718;21.122;2023-05-27T10:33:46;1.58;;;0.65;;
64498;SDS011;51087;55.718;21.122;2023-05-27T10:36:14;2.08;;;0.70;;
64498;SDS011;51087;55.718;21.122;2023-05-27T10:38:41;7.43;;;0.80;;
64498;SDS011;51087;55.718;21.122;2023-05-27T10:41:07;2.33;;;0.82;;
64498;SDS011;51087;55.718;21.122;2023-05-27T10:43:33;2.40;;;0.80;;
64498;SDS011;51087;55.718;21.122;2023-05-27T10:46:03;1.65;;;0.90;;
64498;SDS011;51087;55.718;21.122;2023-05-27T10:48:32;3.55;;;0.80;;
64498;SDS011;51087;55.718;21.122;2023-05-27T10:50:58;1.73;;;0.80;;
64498;SDS011;51087;55.718;21.122;2023-05-27T10:53:27;3.38;;;0.90;;
64498;SDS011;51087;55.718;21.122;2023-05-27T10:55:53;1.52;;;0.77;;
64498;SDS011;51087;55.718;21.122;2023-05-27T10:58:19;1.70;;;0.90;;
64498;SDS011;51087;55.718;21.122;2023-05-27T11:00:49;1.10;;;0.80;;
64498;SDS011;51087;55.718;21.122;2023-05-27T11:03:26;1.80;;;0.73;;
64498;SDS011;51087;55.718;21.122;2023-05-27T11:06:03;5.00;;;0.85;;
64498;SDS011;51087;55.718;21.122;2023-05-27T11:08:31;2.10;;;0.80;;
64498;SDS011;51087;55.718;21.122;2023-05-27T11:11:00;4.57;;;0.70;;
64498;SDS011;51087;55.718;21.122;2023-05-27T11:13:34;1.45;;;0.50;;
64498;SDS011;51087;55.718;21.122;2023-05-27T11:16:09;1.80;;;1.27;;
64498;SDS011;51087;55.718;21.122;2023-05-27T11:18:39;1.38;;;0.70;;
64498;SDS011;51087;55.718;21.122;2023-05-27T11:21:07;1.42;;;0.80;;
64498;SDS011;51087;55.718;21.122;2023-05-27T11:23:42;3.17;;;0.65;;
64498;SDS011;51087;55.718;21.122;2023-05-27T11:26:14;7.00;;;0.90;;
64498;SDS011;51087;55.718;21.122;2023-05-27T11:31:11;2.25;;;0.80;;
64498;SDS011;51087;55.718;21.122;2023-05-27T11:33:40;2.10;;;0.93;;
64498;SDS011;51087;55.718;21.122;2023-05-27T11:36:06;1.63;;;0.60;;
64498;SDS011;51087;55.718;21.122;2023-05-27T11:38:48;2.40;;;0.80;;
64498;SDS011;51087;55.718;21.122;2023-05-27T11:41:16;2.97;;;0.90;;
64498;SDS011;51087;55.718;21.122;2023-05-27T11:44:20;0.80;;;0.60;;
64498;SDS011;51087;55.718;21.122;2023-05-27T11:46:47;1.77;;;0.80;;
64498;SDS011;51087;55.718;21.122;2023-05-27T11:49:13;2.60;;;0.70;;
64498;SDS011;51087;55.718;21.122;2023-05-27T11:51:41;3.30;;;0.85;;
64498;SDS011;51087;55.718;21.122;2023-05-27T11:54:22;3.67;;;0.90;;
64498;SDS011;51087;55.718;21.122;2023-05-27T11:56:49;2.75;;;0.90;;
64498;SDS011;51087;55.718;21.122;2023-05-27T11:59:16;2.35;;;0.73;;
64498;SDS011;51087;55.718;21.122;2023-05-27T12:01:42;4.07;;;0.90;;
64498;SDS011;51087;55.718;21.122;2023-05-27T12:04:08;2.63;;;1.00;;
64498;SDS011;51087;55.718;21.122;2023-05-27T12:06:35;1.50;;;0.88;;
64498;SDS011;51087;55.718;21.122;2023-05-27T12:09:02;5.68;;;0.82;;
64498;SDS011;51087;55.718;21.122;2023-05-27T12:11:27;2.08;;;0.80;;
64498;SDS011;51087;55.718;21.122;2023-05-27T12:13:53;1.45;;;0.70;;
64498;SDS011;51087;55.718;21.122;2023-05-27T12:16:19;4.93;;;0.75;;
64498;SDS011;51087;55.718;21.122;2023-05-27T12:18:44;8.95;;;1.10;;
64498;SDS011;51087;55.718;21.122;2023-05-27T12:21:10;5.45;;;1.00;;
64498;SDS011;51087;55.718;21.122;2023-05-27T12:23:36;3.90;;;1.05;;
64498;SDS011;51087;55.718;21.122;2023-05-27T12:26:01;5.13;;;1.63;;
64498;SDS011;51087;55.718;21.122;2023-05-27T12:28:27;1.85;;;0.70;;
64498;SDS011;51087;55.718;21.122;2023-05-27T12:30:52;3.55;;;0.90;;
64498;SDS011;51087;55.718;21.122;2023-05-27T12:33:18;2.75;;;1.00;;
64498;SDS011;51087;55.718;21.122;2023-05-27T12:35:43;2.55;;;0.90;;
64498;SDS011;51087;55.718;21.122;2023-05-27T12:38:09;6.82;;;1.00;;
64498;SDS011;51087;55.718;21.122;2023-05-27T12:40:34;6.18;;;1.00;;
64498;SDS011;51087;55.718;21.122;2023-05-27T12:43:00;4.15;;;1.45;;
64498;SDS011;51087;55.718;21.122;2023-05-27T12:45:28;2.85;;;0.90;;
64498;SDS011;51087;55.718;21.122;2023-05-27T12:47:54;6.35;;;1.00;;
64498;SDS011;51087;55.718;21.122;2023-05-27T12:50:20;2.85;;;0.98;;
64498;SDS011;51087;55.718;21.122;2023-05-27T12:52:47;3.65;;;1.20;;
64498;SDS011;51087;55.718;21.122;2023-05-27T12:55:16;2.17;;;0.90;;
64498;SDS011;51087;55.718;21.122;2023-05-27T12:57:43;2.97;;;1.20;;
64498;SDS011;51087;55.718;21.122;2023-05-27T13:00:13;1.60;;;0.90;;
64498;SDS011;51087;55.718;21.122;2023-05-27T13:02:39;1.50;;;0.75;;
64498;SDS011;51087;55.718;21.122;2023-05-27T13:05:05;2.80;;;1.00;;
64498;SDS011;51087;55.718;21.122;2023-05-27T13:07:32;8.23;;;1.42;;
64498;SDS011;51087;55.718;21.122;2023-05-27T13:10:01;5.93;;;1.23;;
64498;SDS011;51087;55.718;21.122;2023-05-27T13:12:28;3.97;;;0.77;;
64498;SDS011;51087;55.718;21.122;2023-05-27T13:14:53;3.55;;;1.15;;
64498;SDS011;51087;55.718;21.122;2023-05-27T13:17:19;3.28;;;0.98;;
64498;SDS011;51087;55.718;21.122;2023-05-27T13:19:45;3.08;;;0.95;;
64498;SDS011;51087;55.718;21.122;2023-05-27T13:22:10;4.95;;;1.05;;
64498;SDS011;51087;55.718;21.122;2023-05-27T13:24:39;2.42;;;1.00;;
64498;SDS011;51087;55.718;21.122;2023-05-27T13:27:04;5.78;;;1.40;;
64498;SDS011;51087;55.718;21.122;2023-05-27T13:29:30;2.38;;;1.35;;
64498;SDS011;51087;55.718;21.122;2023-05-27T13:31:55;3.30;;;0.98;;
64498;SDS011;51087;55.718;21.122;2023-05-27T13:34:20;3.13;;;1.10;;
64498;SDS011;51087;55.718;21.122;2023-05-27T13:36:46;5.85;;;1.27;;
64498;SDS011;51087;55.718;21.122;2023-05-27T13:39:11;4.25;;;1.05;;
64498;SDS011;51087;55.718;21.122;2023-05-27T13:41:37;7.38;;;1.30;;
64498;SDS011;51087;55.718;21.122;2023-05-27T13:44:02;5.03;;;0.90;;
64498;SDS011;51087;55.718;21.122;2023-05-27T13:46:29;3.83;;;1.20;;
64498;SDS011;51087;55.718;21.122;2023-05-27T13:48:55;8.02;;;1.15;;
64498;SDS011;51087;55.718;21.122;2023-05-27T13:51:20;2.45;;;0.98;;
64498;SDS011;51087;55.718;21.122;2023-05-27T13:53:46;5.35;;;1.35;;
64498;SDS011;51087;55.718;21.122;2023-05-27T13:56:11;3.83;;;1.25;;
64498;SDS011;51087;55.718;21.122;2023-05-27T13:58:37;2.92;;;1.40;;
64498;SDS011;51087;55.718;21.122;2023-05-27T14:01:02;6.47;;;1.50;;
64498;SDS011;51087;55.718;21.122;2023-05-27T14:03:28;7.75;;;1.65;;
64498;SDS011;51087;55.718;21.122;2023-05-27T14:05:53;4.95;;;1.13;;
64498;SDS011;51087;55.718;21.122;2023-05-27T14:08:18;4.55;;;1.00;;
64498;SDS011;51087;55.718;21.122;2023-05-27T14:10:44;2.78;;;0.98;;
64498;SDS011;51087;55.718;21.122;2023-05-27T14:13:09;7.68;;;1.30;;
64498;SDS011;51087;55.718;21.122;2023-05-27T14:15:34;7.25;;;1.10;;
64498;SDS011;51087;55.718;21.122;2023-05-27T14:18:00;7.57;;;1.38;;
64498;SDS011;51087;55.718;21.122;2023-05-27T14:20:26;3.25;;;1.20;;
64498;SDS011;51087;55.718;21.122;2023-05-27T14:22:52;3.63;;;1.65;;
64498;SDS011;51087;55.718;21.122;2023-05-27T14:25:17;10.02;;;1.67;;
64498;SDS011;51087;55.718;21.122;2023-05-27T14:27:44;7.00;;;1.75;;
64498;SDS011;51087;55.718;21.122;2023-05-27T14:30:10;4.97;;;2.00;;
64498;SDS011;51087;55.718;21.122;2023-05-27T14:32:35;8.75;;;2.15;;
64498;SDS011;51087;55.718;21.122;2023-05-27T14:35:01;11.07;;;2.60;;
64498;SDS011;51087;55.718;21.122;2023-05-27T14:37:26;9.95;;;2.00;;
64498;SDS011;51087;55.718;21.122;2023-05-27T14:39:51;7.28;;;1.40;;
64498;SDS011;51087;55.718;21.122;2023-05-27T14:42:17;5.22;;;1.52;;
64498;SDS011;51087;55.718;21.122;2023-05-27T14:44:43;2.30;;;0.90;;
64498;SDS011;51087;55.718;21.122;2023-05-27T14:47:08;2.25;;;1.10;;